KFSD

Sioux Falls Regional Airport

Airport
ICAO code
KFSD
Summary
ICAO Region
NAM
ICAO Territory
Location

Sioux Falls, South Dakota,

Elevation
1429 ft
Coordinates
43° 35' 7" N , 96° 44' 24" W
KCC
Airport CFIT
Altimeter Temperature Error Correction
Metar
KFSD 251904Z 14011G18KT 10SM FEW020 28/22 A3014 RMK AO2 T02780217

Description

Sioux Falls Regional Airport, also known as Joe Foss Field, is a public and military (ANG) use airport located 6 km northwest of the central business district of Sioux Falls, a city in Minnehaha County, South Dakota.

Climatology

Humid continental climate (Köppen climate classification Dfa) - characterized by four seasons: cold, windy, snowy winters, mild springs, hot, humid summers, and crisp and relatively short autumns. Precipitation reaches its lowest in January and February and peaks in summer and latter half of spring.

Airport map

Aerial View

SKYbrary Partners:

Safety knowledge contributed by: